createdAt,value
2022-12-19T00:00:50.736Z,25.40
2022-12-19T00:03:29.664Z,27.00
2022-12-19T00:06:03.783Z,26.48
2022-12-19T00:08:34.528Z,27.02
2022-12-19T00:11:05.077Z,28.33
2022-12-19T00:13:40.981Z,25.95
2022-12-19T00:16:14.659Z,28.42
2022-12-19T00:18:48.818Z,30.70
2022-12-19T00:21:20.375Z,27.50
2022-12-19T00:23:50.181Z,27.35
2022-12-19T00:26:22.232Z,26.05
2022-12-19T00:28:55.942Z,25.35
2022-12-19T00:31:28.266Z,30.90
2022-12-19T00:33:58.037Z,24.33
2022-12-19T00:36:29.433Z,27.27
2022-12-19T00:41:31.033Z,28.98
2022-12-19T00:44:04.075Z,27.90
2022-12-19T00:46:34.852Z,25.75
2022-12-19T00:49:06.167Z,28.75
2022-12-19T00:51:37.920Z,27.55
2022-12-19T00:54:08.006Z,27.05
2022-12-19T00:59:10.796Z,24.38
2022-12-19T01:01:42.474Z,23.92
2022-12-19T01:04:32.587Z,28.08
2022-12-19T01:07:07.892Z,27.02
2022-12-19T01:09:38.441Z,25.27
2022-12-19T01:15:04.242Z,26.10
2022-12-19T01:17:43.483Z,26.42
2022-12-19T01:20:15.679Z,27.98
2022-12-19T01:22:46.087Z,25.83
2022-12-19T01:25:16.233Z,29.90
2022-12-19T01:27:45.887Z,29.63
2022-12-19T01:30:16.766Z,30.80
2022-12-19T01:32:46.648Z,25.55
2022-12-19T01:35:21.706Z,27.55
2022-12-19T01:37:55.888Z,27.58
2022-12-19T01:40:37.396Z,26.30
2022-12-19T01:43:07.800Z,27.23
2022-12-19T01:45:45.348Z,28.77
2022-12-19T01:48:22.283Z,28.92
2022-12-19T01:51:01.097Z,25.27
2022-12-19T01:53:46.432Z,24.77
2022-12-19T01:56:21.321Z,26.17
2022-12-19T01:58:56.131Z,28.33
2022-12-19T02:01:50.805Z,26.13
2022-12-19T02:04:23.027Z,28.90
2022-12-19T02:06:53.527Z,27.45
2022-12-19T02:11:55.853Z,28.08
2022-12-19T02:14:26.003Z,29.38
2022-12-19T02:17:02.252Z,25.40
2022-12-19T02:20:04.804Z,28.25
2022-12-19T02:22:45.194Z,31.05
2022-12-19T02:25:44.859Z,26.75
2022-12-19T02:28:46.485Z,28.98
2022-12-19T02:31:22.711Z,26.80
2022-12-19T02:33:57.466Z,31.02
2022-12-19T02:36:32.478Z,27.65
2022-12-19T02:39:11.008Z,27.77
2022-12-19T02:41:46.446Z,29.08
2022-12-19T02:44:20.653Z,26.83
2022-12-19T02:46:54.219Z,29.95
2022-12-19T02:49:30.740Z,28.92
2022-12-19T02:52:10.236Z,28.17
2022-12-19T02:54:44.933Z,27.20
2022-12-19T02:57:21.499Z,26.85
2022-12-19T03:00:03.344Z,27.80
2022-12-19T03:02:43.483Z,26.23
2022-12-19T03:05:22.462Z,26.25
2022-12-19T03:07:57.668Z,28.42
2022-12-19T03:10:35.453Z,27.33
2022-12-19T03:13:11.490Z,26.67
2022-12-19T03:15:42.932Z,23.80
2022-12-19T03:18:14.572Z,28.38
2022-12-19T03:20:50.098Z,28.00
2022-12-19T03:23:20.309Z,28.63
2022-12-19T03:25:52.647Z,26.13
2022-12-19T03:28:28.258Z,27.70
2022-12-19T03:31:00.824Z,27.73
2022-12-19T03:33:36.065Z,23.73
2022-12-19T03:36:08.996Z,26.30
2022-12-19T03:38:41.032Z,27.35
2022-12-19T03:41:12.648Z,24.30
2022-12-19T03:43:44.005Z,23.13
2022-12-19T03:46:17.064Z,26.02
2022-12-19T03:48:50.471Z,28.75
2022-12-19T03:51:31.401Z,26.38
2022-12-19T03:54:04.522Z,26.25
2022-12-19T03:56:41.990Z,22.38
2022-12-19T03:59:15.803Z,25.02
2022-12-19T04:01:47.129Z,23.70
2022-12-19T04:04:19.000Z,23.90
2022-12-19T04:06:49.966Z,27.67
2022-12-19T04:09:24.320Z,24.08
2022-12-19T04:11:56.173Z,23.05
2022-12-19T04:14:29.752Z,23.58
2022-12-19T04:17:08.112Z,23.15
2022-12-19T04:19:45.315Z,22.80
2022-12-19T04:22:19.626Z,22.15
2022-12-19T04:24:50.733Z,22.02
2022-12-19T04:27:22.136Z,24.75
2022-12-19T04:29:56.280Z,21.52
2022-12-19T04:32:27.202Z,23.70
2022-12-19T04:34:59.414Z,21.88
2022-12-19T04:37:29.674Z,22.67
2022-12-19T04:39:59.909Z,23.60
2022-12-19T04:42:29.456Z,22.40
2022-12-19T04:44:59.242Z,23.60
2022-12-19T04:47:28.819Z,23.08
2022-12-19T04:50:00.190Z,20.05
2022-12-19T04:52:29.697Z,19.45
2022-12-19T04:54:59.433Z,21.23
2022-12-19T04:57:31.458Z,24.38
2022-12-19T05:00:01.064Z,26.83
2022-12-19T05:02:30.715Z,21.30
2022-12-19T05:05:02.571Z,21.80
2022-12-19T05:07:32.546Z,22.27
2022-12-19T05:10:02.824Z,26.20
2022-12-19T05:12:32.127Z,23.30
2022-12-19T05:15:02.230Z,23.90
2022-12-19T05:17:31.512Z,22.48
2022-12-19T05:20:02.697Z,22.05
2022-12-19T05:22:32.079Z,26.23
2022-12-19T05:25:01.852Z,22.27
2022-12-19T05:27:31.194Z,20.40
2022-12-19T05:30:01.679Z,23.95
2022-12-19T05:32:33.017Z,23.67
2022-12-19T05:35:04.218Z,23.38
2022-12-19T05:37:33.655Z,20.50
2022-12-19T05:40:03.265Z,23.50
2022-12-19T05:42:32.671Z,25.17
2022-12-19T05:45:02.301Z,22.95
2022-12-19T05:47:31.567Z,22.65
2022-12-19T05:50:02.789Z,26.30
2022-12-19T05:55:01.579Z,21.90
2022-12-19T05:57:31.509Z,25.92
2022-12-19T06:00:01.150Z,29.50
2022-12-19T06:02:34.525Z,28.35
2022-12-19T06:05:06.487Z,27.08
2022-12-19T06:07:36.331Z,25.38
2022-12-19T06:10:07.663Z,25.83
2022-12-19T06:15:06.946Z,26.52
2022-12-19T06:17:36.198Z,25.50
2022-12-19T06:20:08.837Z,26.38
2022-12-19T06:22:38.265Z,26.27
2022-12-19T06:25:08.691Z,27.13
2022-12-19T06:27:38.014Z,25.40
2022-12-19T06:30:09.390Z,26.17
2022-12-19T06:32:38.859Z,25.60
2022-12-19T06:35:10.779Z,22.85
2022-12-19T06:37:40.113Z,24.40
2022-12-19T06:40:32.484Z,23.13
2022-12-19T06:43:00.861Z,21.42
2022-12-19T06:45:30.735Z,24.33
2022-12-19T06:48:00.105Z,24.60
2022-12-19T06:50:31.514Z,26.15
2022-12-19T06:53:01.630Z,23.92
2022-12-19T06:55:31.962Z,22.63
2022-12-19T06:58:01.369Z,23.15
2022-12-19T07:00:31.544Z,21.97
2022-12-19T07:03:01.594Z,20.80
2022-12-19T07:05:33.290Z,22.23
2022-12-19T07:10:32.147Z,23.42
2022-12-19T07:13:01.529Z,25.98
2022-12-19T07:15:33.737Z,20.58
2022-12-19T07:18:05.502Z,22.20
2022-12-19T07:20:44.784Z,24.45
2022-12-19T07:23:19.095Z,22.25
2022-12-19T07:25:48.887Z,22.27
2022-12-19T07:28:18.708Z,23.45
2022-12-19T07:30:48.431Z,20.83
2022-12-19T07:33:21.424Z,20.30
2022-12-19T07:35:53.844Z,25.60
2022-12-19T07:38:23.407Z,22.67
2022-12-19T07:40:53.149Z,19.95
2022-12-19T07:43:22.521Z,23.48
2022-12-19T07:45:56.515Z,19.95
2022-12-19T07:48:25.998Z,25.52
2022-12-19T07:50:57.711Z,20.00
2022-12-19T07:53:27.336Z,22.25
2022-12-19T07:55:57.107Z,22.17
2022-12-19T07:58:26.558Z,20.13
2022-12-19T08:00:57.780Z,23.13
2022-12-19T08:03:28.634Z,23.15
2022-12-19T08:06:04.462Z,22.73
2022-12-19T08:08:35.635Z,20.80
2022-12-19T08:11:09.329Z,19.77
2022-12-19T08:13:44.795Z,20.50
2022-12-19T08:16:16.632Z,22.55
2022-12-19T08:18:46.077Z,27.33
2022-12-19T08:21:17.169Z,25.45
2022-12-19T08:23:47.401Z,21.60
2022-12-19T08:26:22.112Z,25.60
2022-12-19T08:28:51.613Z,25.48
2022-12-19T08:31:25.341Z,22.75
2022-12-19T08:33:55.414Z,24.25
2022-12-19T08:36:27.393Z,21.67
2022-12-19T08:38:57.173Z,22.23
2022-12-19T08:41:27.840Z,18.20
2022-12-19T08:43:58.074Z,20.65
2022-12-19T08:46:27.925Z,22.85
2022-12-19T08:48:58.029Z,20.92
2022-12-19T08:51:29.214Z,19.67
2022-12-19T08:53:58.523Z,21.33
2022-12-19T08:56:28.440Z,17.85
2022-12-19T08:58:58.602Z,22.67
2022-12-19T09:01:27.933Z,18.42
2022-12-19T09:05:01.182Z,21.85
2022-12-19T09:06:51.623Z,19.77
2022-12-19T09:09:21.517Z,20.95
2022-12-19T09:11:50.774Z,19.30
2022-12-19T09:14:20.485Z,19.30
2022-12-19T09:16:51.285Z,19.52
2022-12-19T09:19:21.067Z,20.57
2022-12-19T09:21:51.835Z,18.42
2022-12-19T09:24:21.601Z,19.15
2022-12-19T09:26:50.887Z,18.63
2022-12-19T09:29:22.115Z,17.65
2022-12-19T09:31:56.173Z,18.25
2022-12-19T09:34:37.724Z,16.92
2022-12-19T09:37:16.366Z,19.95
2022-12-19T09:39:47.913Z,19.85
2022-12-19T09:42:40.724Z,17.40
2022-12-19T09:45:31.745Z,19.02
2022-12-19T09:48:03.097Z,16.48
2022-12-19T09:50:46.777Z,19.33
2022-12-19T09:53:25.518Z,21.83
2022-12-19T09:55:56.299Z,16.15
2022-12-19T09:58:33.693Z,18.88
2022-12-19T10:01:09.204Z,17.55
2022-12-19T10:03:41.879Z,18.17
2022-12-19T10:07:12.797Z,17.55
2022-12-19T10:11:36.766Z,17.70
2022-12-19T10:12:45.782Z,17.60
2022-12-19T10:15:22.756Z,14.90
2022-12-19T10:18:07.194Z,18.60
2022-12-19T10:20:39.930Z,17.48
2022-12-19T10:23:35.866Z,18.52
2022-12-19T10:26:12.618Z,16.88
2022-12-19T10:28:54.534Z,18.02
2022-12-19T10:31:30.872Z,18.85
2022-12-19T10:34:06.964Z,17.67
2022-12-19T10:39:44.525Z,18.85
2022-12-19T10:42:21.133Z,20.83
2022-12-19T10:44:52.545Z,19.70
2022-12-19T10:49:51.111Z,18.55
2022-12-19T10:52:48.765Z,18.50
2022-12-19T10:55:45.428Z,17.98
2022-12-19T10:58:22.975Z,15.85
2022-12-19T11:01:06.834Z,17.88
2022-12-19T11:03:37.340Z,18.65
2022-12-19T11:06:08.225Z,16.83
2022-12-19T11:08:38.506Z,18.17
2022-12-19T11:12:49.673Z,17.90
2022-12-19T11:18:25.753Z,16.85
2022-12-19T11:23:58.018Z,17.27
2022-12-19T11:29:33.019Z,16.50
2022-12-19T11:30:41.129Z,15.13
2022-12-19T11:30:45.503Z,16.20
2022-12-19T11:30:59.590Z,17.35
2022-12-19T11:34:52.011Z,15.02
2022-12-19T11:37:28.792Z,15.93
2022-12-19T11:40:04.071Z,15.68
2022-12-19T11:42:39.329Z,18.30
2022-12-19T11:45:16.241Z,15.20
2022-12-19T11:47:54.618Z,17.45
2022-12-19T11:50:28.216Z,15.82
2022-12-19T11:53:18.648Z,16.42
2022-12-19T11:55:53.487Z,16.95
2022-12-19T11:58:26.721Z,17.25
2022-12-19T12:01:03.278Z,19.00
2022-12-19T12:04:02.599Z,14.45
2022-12-19T12:06:35.631Z,17.25
2022-12-19T12:10:22.954Z,17.27
2022-12-19T12:19:39.163Z,19.52
2022-12-19T12:27:29.148Z,17.30
2022-12-19T12:31:21.024Z,17.10
2022-12-19T12:31:40.619Z,18.10
2022-12-19T12:31:52.918Z,15.93
2022-12-19T12:32:01.911Z,17.10
2022-12-19T12:32:02.998Z,18.02
2022-12-19T12:36:56.033Z,17.17
2022-12-19T12:39:24.291Z,17.98
2022-12-19T12:42:06.471Z,18.10
2022-12-19T12:44:44.760Z,17.70
2022-12-19T12:47:20.746Z,17.60
2022-12-19T12:49:55.451Z,17.38
2022-12-19T12:52:34.178Z,19.02
2022-12-19T12:55:06.269Z,19.17
2022-12-19T12:57:38.442Z,19.75
2022-12-19T13:00:23.012Z,20.38
2022-12-19T13:02:57.320Z,22.83
2022-12-19T13:05:42.829Z,18.63
2022-12-19T13:08:47.839Z,18.45
2022-12-19T13:11:56.346Z,18.98
2022-12-19T13:14:50.497Z,20.67
2022-12-19T13:17:25.823Z,17.48
2022-12-19T13:19:58.274Z,19.80
2022-12-19T13:22:43.564Z,19.77
2022-12-19T13:25:50.884Z,17.08
2022-12-19T13:28:44.719Z,19.27
2022-12-19T13:31:22.808Z,17.75
2022-12-19T13:34:19.265Z,18.77
2022-12-19T13:39:50.087Z,18.15
2022-12-19T13:40:11.256Z,21.25
2022-12-19T13:43:11.344Z,17.45
2022-12-19T13:45:49.017Z,19.20
2022-12-19T13:48:24.089Z,20.20
2022-12-19T13:50:54.692Z,16.85
2022-12-19T13:53:26.382Z,18.48
2022-12-19T13:56:02.795Z,18.27
2022-12-19T13:58:35.041Z,18.17
2022-12-19T14:01:20.137Z,18.92
2022-12-19T14:03:53.642Z,18.13
2022-12-19T14:06:26.275Z,20.38
2022-12-19T14:11:26.204Z,19.13
2022-12-19T14:13:38.872Z,17.42
2022-12-19T14:15:12.597Z,20.55
2022-12-19T14:17:50.224Z,19.40
2022-12-19T14:20:57.479Z,20.33
2022-12-19T14:23:12.621Z,19.83
2022-12-19T14:28:54.410Z,19.53
2022-12-19T14:31:26.663Z,19.75
2022-12-19T14:34:19.076Z,18.38
2022-12-19T14:36:53.604Z,19.35
2022-12-19T14:39:29.168Z,19.90
2022-12-19T14:42:48.323Z,18.15
2022-12-19T14:52:25.200Z,19.67
2022-12-19T14:52:50.775Z,17.33
2022-12-19T14:54:37.230Z,20.33
2022-12-19T14:57:25.492Z,20.02
2022-12-19T15:01:07.553Z,20.33
2022-12-19T15:03:24.188Z,20.67
2022-12-19T15:07:04.840Z,20.63
2022-12-19T15:11:00.252Z,22.20
2022-12-19T15:14:47.190Z,19.77
2022-12-19T15:15:19.547Z,18.42
2022-12-19T15:17:51.214Z,19.15
2022-12-19T15:20:20.833Z,23.80
2022-12-19T15:22:50.504Z,20.30
2022-12-19T15:26:01.323Z,20.63
2022-12-19T15:28:16.067Z,19.33
2022-12-19T15:30:49.037Z,21.80
2022-12-19T15:33:19.171Z,22.58
2022-12-19T15:35:48.467Z,19.42
2022-12-19T15:38:18.143Z,21.35
2022-12-19T15:40:49.475Z,20.90
2022-12-19T15:44:01.253Z,22.13
2022-12-19T15:46:13.136Z,20.55
2022-12-19T15:48:47.425Z,22.85
2022-12-19T15:51:17.281Z,21.90
2022-12-19T15:53:47.832Z,19.17
2022-12-19T15:56:28.927Z,21.98
2022-12-19T15:59:00.262Z,21.58
2022-12-19T16:01:32.360Z,21.67
2022-12-19T16:04:03.997Z,22.98
2022-12-19T16:06:33.616Z,20.00
2022-12-19T16:09:03.252Z,23.05
2022-12-19T16:11:34.034Z,20.52
2022-12-19T16:14:03.969Z,21.35
2022-12-19T16:16:33.341Z,22.02
2022-12-19T16:19:03.614Z,21.57
2022-12-19T16:21:34.650Z,22.73
2022-12-19T16:24:04.494Z,21.50
2022-12-19T16:26:39.172Z,22.77
2022-12-19T16:29:18.824Z,21.27
2022-12-19T16:31:48.459Z,21.42
2022-12-19T16:34:20.815Z,22.17
2022-12-19T16:36:50.306Z,21.20
2022-12-19T16:39:20.323Z,21.75
2022-12-19T16:41:51.422Z,22.45
2022-12-19T16:44:22.963Z,23.70
2022-12-19T16:46:53.394Z,20.00
2022-12-19T16:49:24.450Z,21.58
2022-12-19T16:51:54.012Z,25.23
2022-12-19T16:54:24.121Z,23.87
2022-12-19T16:56:55.920Z,23.58
2022-12-19T16:59:29.542Z,22.13
2022-12-19T17:02:00.388Z,22.00
2022-12-19T17:04:31.116Z,23.17
2022-12-19T17:07:01.379Z,22.00
2022-12-19T17:09:31.370Z,23.58
2022-12-19T17:12:03.500Z,20.85
2022-12-19T17:14:34.036Z,23.63
2022-12-19T17:17:03.584Z,25.20
2022-12-19T17:19:38.466Z,21.38
2022-12-19T17:22:13.697Z,22.70
2022-12-19T17:24:44.673Z,22.70
2022-12-19T17:27:17.639Z,24.15
2022-12-19T17:29:48.059Z,22.70
2022-12-19T17:32:23.860Z,25.90
2022-12-19T17:34:54.621Z,24.05
2022-12-19T17:37:24.135Z,22.42
2022-12-19T17:39:53.928Z,26.73
2022-12-19T17:42:28.779Z,23.42
2022-12-19T17:45:01.790Z,26.40
2022-12-19T17:47:31.807Z,23.85
2022-12-19T17:50:01.924Z,25.23
2022-12-19T17:52:35.932Z,26.08
2022-12-19T17:55:20.250Z,24.73
2022-12-19T17:57:51.678Z,24.02
2022-12-19T18:00:30.117Z,23.95
2022-12-19T18:03:05.324Z,22.17
2022-12-19T18:05:37.413Z,24.23
2022-12-19T18:08:18.128Z,23.50
2022-12-19T18:10:48.254Z,25.23
2022-12-19T18:13:19.055Z,23.70
2022-12-19T18:15:48.983Z,24.52
2022-12-19T18:18:24.057Z,24.98
2022-12-19T18:20:53.965Z,26.80
2022-12-19T18:23:25.101Z,23.38
2022-12-19T18:26:01.068Z,24.75
2022-12-19T18:28:32.928Z,22.60
2022-12-19T18:31:05.494Z,25.98
2022-12-19T18:33:40.500Z,25.50
2022-12-19T18:36:16.830Z,24.45
2022-12-19T18:38:46.243Z,23.90
2022-12-19T18:41:16.183Z,24.90
2022-12-19T18:43:47.523Z,24.58
2022-12-19T18:46:21.037Z,25.98
2022-12-19T18:48:50.509Z,26.10
2022-12-19T18:51:23.456Z,25.90
2022-12-19T18:53:53.363Z,25.67
2022-12-19T18:56:23.098Z,26.57
2022-12-19T18:58:53.971Z,27.05
2022-12-19T19:01:24.330Z,28.60
2022-12-19T19:03:56.847Z,26.08
2022-12-19T19:06:32.945Z,25.73
2022-12-19T19:09:05.872Z,25.02
2022-12-19T19:11:36.824Z,26.77
2022-12-19T19:14:07.558Z,25.58
2022-12-19T19:19:10.492Z,25.35
2022-12-19T19:21:41.968Z,29.00
2022-12-19T19:26:44.205Z,26.70
2022-12-19T19:29:15.218Z,27.15
2022-12-19T19:31:47.800Z,29.05
2022-12-19T19:34:22.442Z,28.73
2022-12-19T19:36:56.308Z,29.40
2022-12-19T19:39:27.979Z,29.23
2022-12-19T19:41:57.953Z,32.45
2022-12-19T19:44:28.843Z,30.23
2022-12-19T19:46:58.641Z,31.25
2022-12-19T19:49:28.127Z,27.48
2022-12-19T19:52:02.448Z,31.92
2022-12-19T19:54:32.513Z,32.20
2022-12-19T19:57:02.633Z,33.35
2022-12-19T19:59:33.814Z,32.15
2022-12-19T20:02:03.738Z,30.13
2022-12-19T20:04:33.373Z,30.05
2022-12-19T20:07:03.587Z,32.05
2022-12-19T20:09:33.026Z,31.30
2022-12-19T20:12:03.226Z,33.57
2022-12-19T20:14:34.008Z,35.45
2022-12-19T20:17:04.012Z,31.35
2022-12-19T20:19:33.679Z,32.72
2022-12-19T20:22:03.671Z,28.45
2022-12-19T20:24:33.526Z,31.00
2022-12-19T20:27:05.347Z,30.90
2022-12-19T20:29:36.928Z,29.92
2022-12-19T20:32:07.410Z,30.63
2022-12-19T20:34:36.811Z,29.10
2022-12-19T20:37:06.552Z,30.70
2022-12-19T20:39:36.287Z,29.80
2022-12-19T20:42:06.797Z,31.33
2022-12-19T20:44:37.736Z,31.48
2022-12-19T20:47:07.657Z,30.70
2022-12-19T20:49:37.153Z,32.22
2022-12-19T20:52:06.979Z,31.48
2022-12-19T20:54:36.375Z,30.00
2022-12-19T20:57:06.121Z,31.30
2022-12-19T20:59:37.054Z,29.23
2022-12-19T21:02:07.351Z,29.75
2022-12-19T21:04:37.541Z,31.67
2022-12-19T21:07:07.489Z,30.67
2022-12-19T21:09:37.406Z,29.90
2022-12-19T21:12:07.601Z,26.05
2022-12-19T21:14:38.378Z,31.85
2022-12-19T21:17:08.013Z,26.77
2022-12-19T21:19:37.669Z,27.42
2022-12-19T21:22:07.891Z,28.33
2022-12-19T21:24:37.300Z,25.58
2022-12-19T21:27:06.944Z,28.45
2022-12-19T21:29:37.873Z,27.17
2022-12-19T21:32:10.966Z,26.92
2022-12-19T21:34:42.845Z,25.90
2022-12-19T21:37:12.823Z,27.38
2022-12-19T21:39:42.111Z,25.02
2022-12-19T21:42:12.047Z,26.60
2022-12-19T21:44:42.782Z,25.20
2022-12-19T21:49:42.095Z,25.40
2022-12-19T21:52:12.122Z,24.63
2022-12-19T21:54:41.650Z,24.65
2022-12-19T21:57:11.902Z,26.08
2022-12-19T21:59:42.723Z,24.48
2022-12-19T22:02:13.339Z,22.63
2022-12-19T22:04:42.651Z,22.58
2022-12-19T22:07:12.486Z,24.20
2022-12-19T22:09:41.774Z,21.98
2022-12-19T22:12:14.107Z,20.85
2022-12-19T22:14:45.278Z,20.75
2022-12-19T22:17:16.404Z,19.23
2022-12-19T22:19:46.709Z,20.48
2022-12-19T22:22:16.351Z,19.02
2022-12-19T22:24:45.792Z,18.95
2022-12-19T22:27:15.625Z,17.90
2022-12-19T22:29:46.350Z,16.85
2022-12-19T22:34:48.424Z,13.88
2022-12-19T22:37:18.228Z,14.27
2022-12-19T22:39:47.505Z,15.95
2022-12-19T22:42:17.477Z,14.70
2022-12-19T22:44:48.188Z,14.95
2022-12-19T22:49:46.927Z,12.25
2022-12-19T22:52:16.597Z,12.77
2022-12-19T22:54:46.254Z,14.27
2022-12-19T22:57:15.963Z,12.32
2022-12-19T22:59:45.461Z,12.70
2022-12-19T23:02:17.104Z,12.27
2022-12-19T23:07:17.802Z,11.45
2022-12-19T23:09:47.354Z,13.57
2022-12-19T23:12:17.484Z,12.45
2022-12-19T23:14:46.973Z,12.63
2022-12-19T23:17:18.322Z,13.32
2022-12-19T23:19:47.628Z,11.68
2022-12-19T23:22:17.384Z,11.48
2022-12-19T23:24:48.487Z,11.52
2022-12-19T23:29:47.781Z,11.95
2022-12-19T23:32:19.001Z,11.30
2022-12-19T23:34:48.319Z,11.60
2022-12-19T23:37:18.033Z,9.98
2022-12-19T23:39:47.297Z,10.45
2022-12-19T23:42:17.280Z,9.82
2022-12-19T23:44:46.592Z,9.63
2022-12-19T23:47:18.119Z,9.60
2022-12-19T23:49:47.511Z,9.02
2022-12-19T23:52:17.418Z,9.30
2022-12-19T23:54:47.819Z,7.35
2022-12-19T23:59:47.102Z,7.72
